createdAt,value
2022-12-17T00:01:40.946Z,72.22
2022-12-17T00:06:42.428Z,72.36
2022-12-17T00:11:43.893Z,71.30
2022-12-17T00:16:45.364Z,71.80
2022-12-17T00:21:46.883Z,71.18
2022-12-17T00:26:48.324Z,70.92
2022-12-17T00:31:49.876Z,71.42
2022-12-17T00:36:51.460Z,71.64
2022-12-17T00:41:53.555Z,71.54
2022-12-17T00:46:55.186Z,71.64
2022-12-17T00:51:57.161Z,71.10
2022-12-17T00:56:59.021Z,70.88
2022-12-17T01:02:00.589Z,71.04
2022-12-17T01:07:02.179Z,71.28
2022-12-17T01:12:05.304Z,71.73
2022-12-17T01:17:07.030Z,70.70
2022-12-17T01:22:09.109Z,70.12
2022-12-17T01:27:11.733Z,70.74
2022-12-17T01:32:13.260Z,70.05
2022-12-17T01:37:14.829Z,70.92
2022-12-17T01:42:16.268Z,71.13
2022-12-17T01:47:20.926Z,71.04
2022-12-17T01:52:23.022Z,71.05
2022-12-17T01:57:25.775Z,71.41
2022-12-17T02:02:27.350Z,70.83
2022-12-17T02:07:40.259Z,70.76
2022-12-17T02:12:51.003Z,71.02
2022-12-17T02:17:58.047Z,70.43
2022-12-17T02:23:29.481Z,71.62
2022-12-17T02:28:34.074Z,71.09
2022-12-17T02:33:37.871Z,71.26
2022-12-17T02:38:40.586Z,70.78
2022-12-17T02:43:42.458Z,70.79
2022-12-17T02:48:43.957Z,70.42
2022-12-17T02:53:51.272Z,71.58
2022-12-17T02:58:52.765Z,71.14
2022-12-17T03:03:54.454Z,70.47
2022-12-17T03:08:56.840Z,69.92
2022-12-17T03:13:58.959Z,69.89
2022-12-17T03:19:01.006Z,69.56
2022-12-17T03:24:02.446Z,69.71
2022-12-17T03:29:03.981Z,70.48
2022-12-17T03:34:05.444Z,70.10
2022-12-17T03:39:07.076Z,69.83
2022-12-17T03:44:08.525Z,68.98
2022-12-17T03:49:10.357Z,68.84
2022-12-17T03:54:11.912Z,68.90
2022-12-17T03:59:13.781Z,67.81
2022-12-17T04:04:15.265Z,67.95
2022-12-17T04:09:16.769Z,67.97
2022-12-17T04:14:18.327Z,67.42
2022-12-17T04:19:19.815Z,67.78
2022-12-17T04:24:21.324Z,67.97
2022-12-17T04:29:22.835Z,67.26
2022-12-17T04:34:24.321Z,67.05
2022-12-17T04:39:25.738Z,68.64
2022-12-17T04:44:27.168Z,69.51
2022-12-17T04:49:28.613Z,69.53
2022-12-17T04:54:30.126Z,69.94
2022-12-17T04:59:31.656Z,70.19
2022-12-17T05:04:34.605Z,69.66
2022-12-17T05:09:36.060Z,69.79
2022-12-17T05:14:37.472Z,69.55
2022-12-17T05:19:39.038Z,70.28
2022-12-17T05:24:40.476Z,70.09
2022-12-17T05:29:42.028Z,70.40
2022-12-17T05:34:43.509Z,70.45
2022-12-17T05:39:44.964Z,69.63
2022-12-17T05:44:46.443Z,70.38
2022-12-17T05:49:47.924Z,70.10
2022-12-17T05:54:49.385Z,70.26
2022-12-17T05:59:50.812Z,69.47
2022-12-17T06:04:52.241Z,68.92
2022-12-17T06:09:53.663Z,68.72
2022-12-17T06:14:55.076Z,68.70
2022-12-17T06:19:56.543Z,68.59
2022-12-17T06:24:58.048Z,68.85
2022-12-17T06:29:59.511Z,69.39
2022-12-17T06:35:00.933Z,69.19
2022-12-17T06:40:02.461Z,68.39
2022-12-17T06:45:04.246Z,67.99
2022-12-17T06:50:06.351Z,68.61
2022-12-17T06:55:08.250Z,69.38
2022-12-17T07:00:10.384Z,69.47
2022-12-17T07:05:11.928Z,69.87
2022-12-17T07:10:14.524Z,69.12
2022-12-17T07:15:16.220Z,69.67
2022-12-17T07:20:17.645Z,69.59
2022-12-17T07:25:19.114Z,69.35
2022-12-17T07:30:20.630Z,69.13
2022-12-17T07:35:22.204Z,69.13
2022-12-17T07:40:23.686Z,68.92
2022-12-17T07:45:25.377Z,68.50
2022-12-17T07:50:26.981Z,68.46
2022-12-17T07:55:28.567Z,67.99
2022-12-17T08:00:30.147Z,67.67
2022-12-17T08:05:31.547Z,67.40
2022-12-17T08:10:33.026Z,67.15
2022-12-17T08:15:34.432Z,67.23
2022-12-17T08:20:35.852Z,67.65
2022-12-17T08:25:37.322Z,67.56
2022-12-17T08:30:38.895Z,67.41
2022-12-17T08:35:40.426Z,67.33
2022-12-17T08:40:41.847Z,66.84
2022-12-17T08:45:50.426Z,67.62
2022-12-17T08:50:52.328Z,67.56
2022-12-17T08:55:53.764Z,67.72
2022-12-17T09:00:59.261Z,67.23
2022-12-17T09:06:00.791Z,67.32
2022-12-17T09:11:02.282Z,67.35
2022-12-17T09:16:03.946Z,67.08
2022-12-17T09:21:05.650Z,67.21
2022-12-17T09:26:07.311Z,67.27
2022-12-17T09:31:08.963Z,66.18
2022-12-17T09:36:10.562Z,65.76
2022-12-17T09:41:31.890Z,65.29
2022-12-17T09:46:45.134Z,65.44
2022-12-17T09:51:46.749Z,64.82
2022-12-17T09:56:49.099Z,64.03
2022-12-17T10:01:50.679Z,65.02
2022-12-17T10:06:52.233Z,64.85
2022-12-17T10:11:54.525Z,64.72
2022-12-17T10:16:56.014Z,64.74
2022-12-17T10:22:07.441Z,63.71
2022-12-17T10:27:10.524Z,63.97
2022-12-17T10:32:14.927Z,63.21
2022-12-17T10:37:20.630Z,63.46
2022-12-17T10:42:28.082Z,63.89
2022-12-17T10:47:33.777Z,63.88
2022-12-17T10:52:36.773Z,64.48
2022-12-17T10:57:38.702Z,64.45
2022-12-17T11:02:48.248Z,64.20
2022-12-17T11:07:50.036Z,64.61
2022-12-17T11:12:56.386Z,64.85
2022-12-17T11:17:58.767Z,64.79
2022-12-17T11:23:01.029Z,64.76
2022-12-17T11:28:15.370Z,65.31
2022-12-17T11:33:21.711Z,64.76
2022-12-17T11:38:44.160Z,65.20
2022-12-17T11:43:59.964Z,65.40
2022-12-17T11:49:14.186Z,65.45
2022-12-17T11:54:27.017Z,65.15
2022-12-17T11:59:31.565Z,64.83
2022-12-17T12:05:05.117Z,66.57
2022-12-17T12:10:19.440Z,64.44
2022-12-17T12:15:53.989Z,64.55
2022-12-17T12:21:25.476Z,65.66
2022-12-17T12:26:50.368Z,65.73
2022-12-17T12:32:13.459Z,66.20
2022-12-17T12:37:18.134Z,65.40
2022-12-17T12:42:25.059Z,65.72
2022-12-17T12:47:45.971Z,64.83
2022-12-17T12:52:47.724Z,65.43
2022-12-17T12:58:23.015Z,65.54
2022-12-17T13:03:31.173Z,66.20
2022-12-17T13:08:34.731Z,65.53
2022-12-17T13:13:42.419Z,64.97
2022-12-17T13:18:43.907Z,64.48
2022-12-17T13:23:45.372Z,64.47
2022-12-17T13:29:28.910Z,64.84
2022-12-17T13:34:42.446Z,64.85
2022-12-17T13:40:15.870Z,64.30
2022-12-17T13:45:21.940Z,64.07
2022-12-17T13:50:35.613Z,63.74
2022-12-17T13:55:38.107Z,64.45
2022-12-17T14:00:39.560Z,64.56
2022-12-17T14:05:44.287Z,64.59
2022-12-17T14:10:54.403Z,64.03
2022-12-17T14:15:55.855Z,64.59
2022-12-17T14:20:57.402Z,64.79
2022-12-17T14:25:59.424Z,65.57
2022-12-17T14:31:28.736Z,65.69
2022-12-17T14:36:32.023Z,66.22
2022-12-17T14:41:37.817Z,66.67
2022-12-17T14:46:39.310Z,67.49
2022-12-17T14:51:42.483Z,67.09
2022-12-17T14:56:46.458Z,67.52
2022-12-17T15:01:54.152Z,67.90
2022-12-17T15:06:57.348Z,68.52
2022-12-17T15:11:58.821Z,68.09
2022-12-17T15:17:00.330Z,68.78
2022-12-17T15:22:03.934Z,69.02
2022-12-17T15:27:05.439Z,68.69
2022-12-17T15:32:06.977Z,69.36
2022-12-17T15:37:08.464Z,68.99
2022-12-17T15:42:10.141Z,69.08
2022-12-17T15:47:11.635Z,69.06
2022-12-17T15:52:13.148Z,69.02
2022-12-17T15:57:18.570Z,69.09
2022-12-17T16:02:20.502Z,68.85
2022-12-17T16:07:22.099Z,68.83
2022-12-17T16:12:23.531Z,70.01
2022-12-17T16:17:25.015Z,69.39
2022-12-17T16:22:27.974Z,69.21
2022-12-17T16:27:29.462Z,70.11
2022-12-17T16:32:36.091Z,69.66
2022-12-17T16:37:38.144Z,68.84
2022-12-17T16:42:39.603Z,69.70
2022-12-17T16:47:41.051Z,69.11
2022-12-17T16:52:42.460Z,69.19
2022-12-17T16:57:43.953Z,69.39
2022-12-17T17:02:49.879Z,68.48
2022-12-17T17:07:54.366Z,67.71
2022-12-17T17:12:55.927Z,68.04
2022-12-17T17:18:02.027Z,69.08
2022-12-17T17:23:04.372Z,69.26
2022-12-17T17:28:05.851Z,69.64
2022-12-17T17:33:07.347Z,69.58
2022-12-17T17:38:08.813Z,70.38
2022-12-17T17:43:10.249Z,70.40
2022-12-17T17:48:11.709Z,70.78
2022-12-17T17:53:13.130Z,71.16
2022-12-17T17:58:14.581Z,70.90
2022-12-17T18:03:16.133Z,70.56
2022-12-17T18:08:17.702Z,70.77
2022-12-17T18:13:19.161Z,70.84
2022-12-17T18:18:20.588Z,70.63
2022-12-17T18:23:22.024Z,70.53
2022-12-17T18:28:23.483Z,70.95
2022-12-17T18:33:24.916Z,71.82
2022-12-17T18:38:26.403Z,71.42
2022-12-17T18:43:27.819Z,71.44
2022-12-17T18:48:29.411Z,72.46
2022-12-17T18:53:30.848Z,71.71
2022-12-17T18:58:32.312Z,71.88
2022-12-17T19:03:34.068Z,72.37
2022-12-17T19:08:36.077Z,72.18
2022-12-17T19:13:38.191Z,72.22
2022-12-17T19:18:40.646Z,71.91
2022-12-17T19:23:42.288Z,72.50
2022-12-17T19:28:46.358Z,71.83
2022-12-17T19:33:47.976Z,71.92
2022-12-17T19:38:54.351Z,71.52
2022-12-17T19:43:58.098Z,71.21
2022-12-17T19:49:00.005Z,71.00
2022-12-17T19:54:08.115Z,71.09
2022-12-17T19:59:12.336Z,70.96
2022-12-17T20:04:15.523Z,71.19
2022-12-17T20:09:17.017Z,70.65
2022-12-17T20:14:22.365Z,69.29
2022-12-17T20:19:26.830Z,69.79
2022-12-17T20:24:31.509Z,69.85
2022-12-17T20:29:33.163Z,69.69
2022-12-17T20:34:34.700Z,70.70
2022-12-17T20:39:36.228Z,71.03
2022-12-17T20:44:37.709Z,70.23
2022-12-17T20:49:39.198Z,70.86
2022-12-17T20:54:40.612Z,70.41
2022-12-17T20:59:42.061Z,70.56
2022-12-17T21:04:43.594Z,70.61
2022-12-17T21:09:45.098Z,70.76
2022-12-17T21:14:46.526Z,71.07
2022-12-17T21:19:48.000Z,71.22
2022-12-17T21:24:49.530Z,71.37
2022-12-17T21:29:51.019Z,71.44
2022-12-17T21:34:52.536Z,71.98
2022-12-17T21:39:59.618Z,71.75
2022-12-17T21:45:01.459Z,71.62
2022-12-17T21:50:03.406Z,71.80
2022-12-17T21:55:05.361Z,70.89
2022-12-17T22:00:07.964Z,71.30
2022-12-17T22:05:12.614Z,71.59
2022-12-17T22:10:24.312Z,71.58
2022-12-17T22:15:48.182Z,71.97
2022-12-17T22:20:58.583Z,72.12
2022-12-17T22:26:00.088Z,72.56
2022-12-17T22:31:06.102Z,71.83
2022-12-17T22:38:49.490Z,72.09
2022-12-17T22:44:49.155Z,71.68
2022-12-17T22:46:52.031Z,71.88
2022-12-17T22:51:53.547Z,71.76
2022-12-17T22:57:20.941Z,72.12
2022-12-17T23:02:16.642Z,71.82
2022-12-17T23:07:18.244Z,71.64
2022-12-17T23:12:19.723Z,72.13
2022-12-17T23:17:21.215Z,72.45
2022-12-17T23:22:22.662Z,72.48
2022-12-17T23:27:24.185Z,72.12
2022-12-17T23:32:26.246Z,71.94
2022-12-17T23:37:27.665Z,72.11
2022-12-17T23:42:29.118Z,72.35
2022-12-17T23:47:31.391Z,72.30
2022-12-17T23:52:32.883Z,71.94
2022-12-17T23:57:34.300Z,71.87
